sensor_id;sensor_type;location;lat;lon;timestamp;temperature;humidity
7958;DHT22;4024;52.172;5.378;2024-02-14T00:00:09;10.10;99.90
7958;DHT22;4024;52.172;5.378;2024-02-14T00:02:45;10.10;99.90
7958;DHT22;4024;52.172;5.378;2024-02-14T00:05:11;10.10;99.90
7958;DHT22;4024;52.172;5.378;2024-02-14T00:07:37;10.20;99.90
7958;DHT22;4024;52.172;5.378;2024-02-14T00:10:03;10.20;99.90
7958;DHT22;4024;52.172;5.378;2024-02-14T00:12:31;10.20;99.90
7958;DHT22;4024;52.172;5.378;2024-02-14T00:14:57;10.20;99.90
7958;DHT22;4024;52.172;5.378;2024-02-14T00:17:23;10.20;99.90
7958;DHT22;4024;52.172;5.378;2024-02-14T00:19:49;10.20;99.90
7958;DHT22;4024;52.172;5.378;2024-02-14T00:22:14;10.20;99.90
7958;DHT22;4024;52.172;5.378;2024-02-14T00:24:41;10.20;99.90
7958;DHT22;4024;52.172;5.378;2024-02-14T00:27:06;10.20;99.90
7958;DHT22;4024;52.172;5.378;2024-02-14T00:29:32;10.30;99.90
7958;DHT22;4024;52.172;5.378;2024-02-14T00:32:00;10.30;99.90
7958;DHT22;4024;52.172;5.378;2024-02-14T00:34:25;10.30;99.90
7958;DHT22;4024;52.172;5.378;2024-02-14T00:36:51;10.30;99.90
7958;DHT22;4024;52.172;5.378;2024-02-14T00:39:17;10.30;99.90
7958;DHT22;4024;52.172;5.378;2024-02-14T00:41:42;10.30;99.90
7958;DHT22;4024;52.172;5.378;2024-02-14T00:44:08;10.40;99.90
7958;DHT22;4024;52.172;5.378;2024-02-14T00:46:33;10.30;99.90
7958;DHT22;4024;52.172;5.378;2024-02-14T00:48:59;10.40;99.90
7958;DHT22;4024;52.172;5.378;2024-02-14T00:51:25;10.40;99.90
7958;DHT22;4024;52.172;5.378;2024-02-14T00:53:52;10.40;99.90
7958;DHT22;4024;52.172;5.378;2024-02-14T00:56:17;10.40;99.90
7958;DHT22;4024;52.172;5.378;2024-02-14T00:58:43;10.50;99.90
7958;DHT22;4024;52.172;5.378;2024-02-14T01:01:09;10.50;99.90
7958;DHT22;4024;52.172;5.378;2024-02-14T01:03:34;10.60;99.90
7958;DHT22;4024;52.172;5.378;2024-02-14T01:06:00;10.50;99.90
7958;DHT22;4024;52.172;5.378;2024-02-14T01:08:26;10.50;99.90
7958;DHT22;4024;52.172;5.378;2024-02-14T01:10:51;10.60;99.90
7958;DHT22;4024;52.172;5.378;2024-02-14T01:13:18;10.50;99.90
7958;DHT22;4024;52.172;5.378;2024-02-14T01:15:44;10.60;99.90
7958;DHT22;4024;52.172;5.378;2024-02-14T01:18:09;10.60;99.90
7958;DHT22;4024;52.172;5.378;2024-02-14T01:20:35;10.60;99.90
7958;DHT22;4024;52.172;5.378;2024-02-14T01:23:01;10.70;99.90
7958;DHT22;4024;52.172;5.378;2024-02-14T01:25:26;10.70;99.90
7958;DHT22;4024;52.172;5.378;2024-02-14T01:27:52;10.70;99.90
7958;DHT22;4024;52.172;5.378;2024-02-14T01:30:18;10.70;99.90
7958;DHT22;4024;52.172;5.378;2024-02-14T01:32:44;10.70;99.90
7958;DHT22;4024;52.172;5.378;2024-02-14T01:35:10;10.70;99.90
7958;DHT22;4024;52.172;5.378;2024-02-14T01:37:35;10.70;99.90
7958;DHT22;4024;52.172;5.378;2024-02-14T01:40:01;10.70;99.90
7958;DHT22;4024;52.172;5.378;2024-02-14T01:42:27;10.80;99.90
7958;DHT22;4024;52.172;5.378;2024-02-14T01:44:53;10.70;99.90
7958;DHT22;4024;52.172;5.378;2024-02-14T01:47:20;10.80;99.90
7958;DHT22;4024;52.172;5.378;2024-02-14T01:49:46;10.80;99.90
7958;DHT22;4024;52.172;5.378;2024-02-14T01:52:12;10.80;99.90
7958;DHT22;4024;52.172;5.378;2024-02-14T01:54:39;10.90;99.90
7958;DHT22;4024;52.172;5.378;2024-02-14T01:57:05;10.90;99.90
7958;DHT22;4024;52.172;5.378;2024-02-14T01:59:32;10.90;99.90
7958;DHT22;4024;52.172;5.378;2024-02-14T02:02:00;10.90;99.90
7958;DHT22;4024;52.172;5.378;2024-02-14T02:04:25;10.90;99.90
7958;DHT22;4024;52.172;5.378;2024-02-14T02:06:51;11.00;99.90
7958;DHT22;4024;52.172;5.378;2024-02-14T02:09:17;11.00;99.90
7958;DHT22;4024;52.172;5.378;2024-02-14T02:11:50;11.00;99.90
7958;DHT22;4024;52.172;5.378;2024-02-14T02:14:17;11.00;99.90
7958;DHT22;4024;52.172;5.378;2024-02-14T02:16:43;11.00;99.90
7958;DHT22;4024;52.172;5.378;2024-02-14T02:19:09;11.00;99.90
7958;DHT22;4024;52.172;5.378;2024-02-14T02:21:38;11.10;99.90
7958;DHT22;4024;52.172;5.378;2024-02-14T02:24:04;11.10;99.90
7958;DHT22;4024;52.172;5.378;2024-02-14T02:26:30;11.10;99.90
7958;DHT22;4024;52.172;5.378;2024-02-14T02:28:56;11.10;99.90
7958;DHT22;4024;52.172;5.378;2024-02-14T02:31:22;11.10;99.90
7958;DHT22;4024;52.172;5.378;2024-02-14T02:33:48;11.20;99.90
7958;DHT22;4024;52.172;5.378;2024-02-14T02:36:14;11.10;99.90
7958;DHT22;4024;52.172;5.378;2024-02-14T02:38:41;11.20;99.90
7958;DHT22;4024;52.172;5.378;2024-02-14T02:41:07;11.20;99.90
7958;DHT22;4024;52.172;5.378;2024-02-14T02:43:33;11.20;99.90
7958;DHT22;4024;52.172;5.378;2024-02-14T02:45:59;11.20;99.90
7958;DHT22;4024;52.172;5.378;2024-02-14T02:48:24;11.20;99.90
7958;DHT22;4024;52.172;5.378;2024-02-14T02:50:50;11.30;99.90
7958;DHT22;4024;52.172;5.378;2024-02-14T02:53:17;11.30;99.90
7958;DHT22;4024;52.172;5.378;2024-02-14T02:55:43;11.30;99.90
7958;DHT22;4024;52.172;5.378;2024-02-14T02:58:09;11.30;99.90
7958;DHT22;4024;52.172;5.378;2024-02-14T03:00:34;11.30;99.90
7958;DHT22;4024;52.172;5.378;2024-02-14T03:03:00;11.30;99.90
7958;DHT22;4024;52.172;5.378;2024-02-14T03:05:28;11.30;99.90
7958;DHT22;4024;52.172;5.378;2024-02-14T03:07:54;11.30;99.90
7958;DHT22;4024;52.172;5.378;2024-02-14T03:10:22;11.30;99.90
7958;DHT22;4024;52.172;5.378;2024-02-14T03:12:48;11.30;99.90
7958;DHT22;4024;52.172;5.378;2024-02-14T03:15:15;11.30;99.90
7958;DHT22;4024;52.172;5.378;2024-02-14T03:17:41;11.40;99.90
7958;DHT22;4024;52.172;5.378;2024-02-14T03:20:08;11.40;99.90
7958;DHT22;4024;52.172;5.378;2024-02-14T03:22:40;11.40;99.90
7958;DHT22;4024;52.172;5.378;2024-02-14T03:25:19;11.40;99.90
7958;DHT22;4024;52.172;5.378;2024-02-14T03:27:45;11.40;99.90
7958;DHT22;4024;52.172;5.378;2024-02-14T03:30:14;11.40;99.90
7958;DHT22;4024;52.172;5.378;2024-02-14T03:32:42;11.40;99.90
7958;DHT22;4024;52.172;5.378;2024-02-14T03:35:08;11.40;99.90
7958;DHT22;4024;52.172;5.378;2024-02-14T03:37:35;11.40;99.90
7958;DHT22;4024;52.172;5.378;2024-02-14T03:40:03;11.40;99.90
7958;DHT22;4024;52.172;5.378;2024-02-14T03:42:29;11.40;99.90
7958;DHT22;4024;52.172;5.378;2024-02-14T03:44:55;11.50;99.90
7958;DHT22;4024;52.172;5.378;2024-02-14T03:47:28;11.50;99.90
7958;DHT22;4024;52.172;5.378;2024-02-14T03:49:54;11.50;99.90
7958;DHT22;4024;52.172;5.378;2024-02-14T03:52:20;11.50;99.90
7958;DHT22;4024;52.172;5.378;2024-02-14T03:54:48;11.50;99.90
7958;DHT22;4024;52.172;5.378;2024-02-14T03:57:14;11.60;99.90
7958;DHT22;4024;52.172;5.378;2024-02-14T03:59:39;11.60;99.90
7958;DHT22;4024;52.172;5.378;2024-02-14T04:02:05;11.60;99.90
7958;DHT22;4024;52.172;5.378;2024-02-14T04:04:38;11.60;99.90
7958;DHT22;4024;52.172;5.378;2024-02-14T04:07:05;11.60;99.90
7958;DHT22;4024;52.172;5.378;2024-02-14T04:09:33;11.60;99.90
7958;DHT22;4024;52.172;5.378;2024-02-14T04:11:58;11.70;99.90
7958;DHT22;4024;52.172;5.378;2024-02-14T04:14:24;11.70;99.90
7958;DHT22;4024;52.172;5.378;2024-02-14T04:16:49;11.70;99.90
7958;DHT22;4024;52.172;5.378;2024-02-14T04:19:15;11.80;99.90
7958;DHT22;4024;52.172;5.378;2024-02-14T04:21:43;11.80;99.90
7958;DHT22;4024;52.172;5.378;2024-02-14T04:24:08;11.80;99.90
7958;DHT22;4024;52.172;5.378;2024-02-14T04:26:34;11.80;99.90
7958;DHT22;4024;52.172;5.378;2024-02-14T04:29:00;11.90;99.90
7958;DHT22;4024;52.172;5.378;2024-02-14T04:31:25;11.80;99.90
7958;DHT22;4024;52.172;5.378;2024-02-14T04:33:52;11.80;99.90
7958;DHT22;4024;52.172;5.378;2024-02-14T04:36:19;12.00;99.90
7958;DHT22;4024;52.172;5.378;2024-02-14T04:38:46;11.90;99.90
7958;DHT22;4024;52.172;5.378;2024-02-14T04:41:12;11.90;99.90
7958;DHT22;4024;52.172;5.378;2024-02-14T04:43:38;11.90;99.90
7958;DHT22;4024;52.172;5.378;2024-02-14T04:46:04;11.90;99.90
7958;DHT22;4024;52.172;5.378;2024-02-14T04:48:32;11.90;99.90
7958;DHT22;4024;52.172;5.378;2024-02-14T04:50:58;11.90;99.90
7958;DHT22;4024;52.172;5.378;2024-02-14T04:53:24;11.90;99.90
7958;DHT22;4024;52.172;5.378;2024-02-14T04:55:50;11.90;99.90
7958;DHT22;4024;52.172;5.378;2024-02-14T04:58:16;11.90;99.90
7958;DHT22;4024;52.172;5.378;2024-02-14T05:00:42;11.90;99.90
7958;DHT22;4024;52.172;5.378;2024-02-14T05:03:08;12.00;99.90
7958;DHT22;4024;52.172;5.378;2024-02-14T05:05:35;12.00;99.90
7958;DHT22;4024;52.172;5.378;2024-02-14T05:08:01;12.00;99.90
7958;DHT22;4024;52.172;5.378;2024-02-14T05:10:31;12.00;99.90
7958;DHT22;4024;52.172;5.378;2024-02-14T05:12:57;12.00;99.90
7958;DHT22;4024;52.172;5.378;2024-02-14T05:15:23;12.00;99.90
7958;DHT22;4024;52.172;5.378;2024-02-14T05:17:49;12.10;99.90
7958;DHT22;4024;52.172;5.378;2024-02-14T05:20:15;12.00;99.90
7958;DHT22;4024;52.172;5.378;2024-02-14T05:22:41;12.10;99.90
7958;DHT22;4024;52.172;5.378;2024-02-14T05:25:07;12.10;99.90
7958;DHT22;4024;52.172;5.378;2024-02-14T05:27:34;12.10;99.90
7958;DHT22;4024;52.172;5.378;2024-02-14T05:30:01;12.10;99.90
7958;DHT22;4024;52.172;5.378;2024-02-14T05:32:31;12.10;99.90
7958;DHT22;4024;52.172;5.378;2024-02-14T05:34:57;12.10;99.90
7958;DHT22;4024;52.172;5.378;2024-02-14T05:37:23;12.20;99.90
7958;DHT22;4024;52.172;5.378;2024-02-14T05:39:48;12.20;99.90
7958;DHT22;4024;52.172;5.378;2024-02-14T05:42:15;12.20;99.90
7958;DHT22;4024;52.172;5.378;2024-02-14T05:44:42;12.20;99.90
7958;DHT22;4024;52.172;5.378;2024-02-14T05:47:08;12.20;99.90
7958;DHT22;4024;52.172;5.378;2024-02-14T05:49:34;12.20;99.90
7958;DHT22;4024;52.172;5.378;2024-02-14T05:52:00;12.20;99.90
7958;DHT22;4024;52.172;5.378;2024-02-14T05:54:25;12.30;99.90
7958;DHT22;4024;52.172;5.378;2024-02-14T05:56:51;12.30;99.90
7958;DHT22;4024;52.172;5.378;2024-02-14T05:59:16;12.30;99.90
7958;DHT22;4024;52.172;5.378;2024-02-14T06:01:42;12.20;99.90
7958;DHT22;4024;52.172;5.378;2024-02-14T06:04:08;12.30;99.90
7958;DHT22;4024;52.172;5.378;2024-02-14T06:06:34;12.30;99.90
7958;DHT22;4024;52.172;5.378;2024-02-14T06:08:59;12.30;99.90
7958;DHT22;4024;52.172;5.378;2024-02-14T06:11:25;12.30;99.90
7958;DHT22;4024;52.172;5.378;2024-02-14T06:13:50;12.30;99.90
7958;DHT22;4024;52.172;5.378;2024-02-14T06:16:16;12.30;99.90
7958;DHT22;4024;52.172;5.378;2024-02-14T06:18:42;12.30;99.90
7958;DHT22;4024;52.172;5.378;2024-02-14T06:21:07;12.30;99.90
7958;DHT22;4024;52.172;5.378;2024-02-14T06:23:34;12.30;99.90
7958;DHT22;4024;52.172;5.378;2024-02-14T06:26:00;12.40;99.90
7958;DHT22;4024;52.172;5.378;2024-02-14T06:28:25;12.30;99.90
7958;DHT22;4024;52.172;5.378;2024-02-14T06:30:51;12.30;99.90
7958;DHT22;4024;52.172;5.378;2024-02-14T06:33:16;12.40;99.90
7958;DHT22;4024;52.172;5.378;2024-02-14T06:35:42;12.30;99.90
7958;DHT22;4024;52.172;5.378;2024-02-14T06:38:08;12.40;99.90
7958;DHT22;4024;52.172;5.378;2024-02-14T06:40:33;12.40;99.90
7958;DHT22;4024;52.172;5.378;2024-02-14T06:42:59;12.40;99.90
7958;DHT22;4024;52.172;5.378;2024-02-14T06:45:27;12.40;99.90
7958;DHT22;4024;52.172;5.378;2024-02-14T06:47:53;12.40;99.90
7958;DHT22;4024;52.172;5.378;2024-02-14T06:50:19;12.40;99.90
7958;DHT22;4024;52.172;5.378;2024-02-14T06:52:45;12.40;99.90
7958;DHT22;4024;52.172;5.378;2024-02-14T06:55:11;12.40;99.90
7958;DHT22;4024;52.172;5.378;2024-02-14T06:57:37;12.40;99.90
7958;DHT22;4024;52.172;5.378;2024-02-14T07:00:03;12.40;99.90
7958;DHT22;4024;52.172;5.378;2024-02-14T07:02:31;12.40;99.90
7958;DHT22;4024;52.172;5.378;2024-02-14T07:04:57;12.50;99.90
7958;DHT22;4024;52.172;5.378;2024-02-14T07:07:22;12.50;99.90
7958;DHT22;4024;52.172;5.378;2024-02-14T07:09:48;12.50;99.90
7958;DHT22;4024;52.172;5.378;2024-02-14T07:12:13;12.50;99.90
7958;DHT22;4024;52.172;5.378;2024-02-14T07:14:39;12.50;99.90
7958;DHT22;4024;52.172;5.378;2024-02-14T07:17:05;12.50;99.90
7958;DHT22;4024;52.172;5.378;2024-02-14T07:19:30;12.50;99.90
7958;DHT22;4024;52.172;5.378;2024-02-14T07:21:56;12.50;99.90
7958;DHT22;4024;52.172;5.378;2024-02-14T07:24:21;12.50;99.90
7958;DHT22;4024;52.172;5.378;2024-02-14T07:26:47;12.50;99.90
7958;DHT22;4024;52.172;5.378;2024-02-14T07:29:13;12.50;99.90
7958;DHT22;4024;52.172;5.378;2024-02-14T07:31:38;12.50;99.90
7958;DHT22;4024;52.172;5.378;2024-02-14T07:34:05;12.50;99.90
7958;DHT22;4024;52.172;5.378;2024-02-14T07:36:31;12.50;99.90
7958;DHT22;4024;52.172;5.378;2024-02-14T07:38:57;12.50;99.90
7958;DHT22;4024;52.172;5.378;2024-02-14T07:41:23;12.60;99.90
7958;DHT22;4024;52.172;5.378;2024-02-14T07:43:48;12.60;99.90
7958;DHT22;4024;52.172;5.378;2024-02-14T07:46:18;12.60;99.90
7958;DHT22;4024;52.172;5.378;2024-02-14T07:48:44;12.60;99.90
7958;DHT22;4024;52.172;5.378;2024-02-14T07:51:10;12.60;99.90
7958;DHT22;4024;52.172;5.378;2024-02-14T07:53:36;12.60;99.90
7958;DHT22;4024;52.172;5.378;2024-02-14T07:56:01;12.60;99.90
7958;DHT22;4024;52.172;5.378;2024-02-14T07:58:27;12.60;99.90
7958;DHT22;4024;52.172;5.378;2024-02-14T08:00:52;12.60;99.90
7958;DHT22;4024;52.172;5.378;2024-02-14T08:03:18;12.70;99.90
7958;DHT22;4024;52.172;5.378;2024-02-14T08:05:43;12.70;99.90
7958;DHT22;4024;52.172;5.378;2024-02-14T08:08:10;12.70;99.90
7958;DHT22;4024;52.172;5.378;2024-02-14T08:10:35;12.70;99.90
7958;DHT22;4024;52.172;5.378;2024-02-14T08:13:01;12.70;99.90
7958;DHT22;4024;52.172;5.378;2024-02-14T08:15:29;12.70;99.90
7958;DHT22;4024;52.172;5.378;2024-02-14T08:17:55;12.70;99.90
7958;DHT22;4024;52.172;5.378;2024-02-14T08:20:22;12.70;99.90
7958;DHT22;4024;52.172;5.378;2024-02-14T08:22:49;12.70;99.90
7958;DHT22;4024;52.172;5.378;2024-02-14T08:25:14;12.80;99.90
7958;DHT22;4024;52.172;5.378;2024-02-14T08:27:40;12.80;99.90
7958;DHT22;4024;52.172;5.378;2024-02-14T08:30:06;12.80;99.90
7958;DHT22;4024;52.172;5.378;2024-02-14T08:32:33;12.80;99.90
7958;DHT22;4024;52.172;5.378;2024-02-14T08:34:59;12.80;99.90
7958;DHT22;4024;52.172;5.378;2024-02-14T08:37:24;12.80;99.90
7958;DHT22;4024;52.172;5.378;2024-02-14T08:39:50;12.90;99.90
7958;DHT22;4024;52.172;5.378;2024-02-14T08:42:16;12.90;99.90
7958;DHT22;4024;52.172;5.378;2024-02-14T08:44:42;12.90;99.90
7958;DHT22;4024;52.172;5.378;2024-02-14T08:47:07;12.90;99.90
7958;DHT22;4024;52.172;5.378;2024-02-14T08:49:34;12.90;99.90
7958;DHT22;4024;52.172;5.378;2024-02-14T08:51:59;12.90;99.90
7958;DHT22;4024;52.172;5.378;2024-02-14T08:54:25;12.90;99.90
7958;DHT22;4024;52.172;5.378;2024-02-14T08:56:53;12.90;99.90
7958;DHT22;4024;52.172;5.378;2024-02-14T08:59:21;13.00;99.90
7958;DHT22;4024;52.172;5.378;2024-02-14T09:01:47;13.00;99.90
7958;DHT22;4024;52.172;5.378;2024-02-14T09:04:13;13.00;99.90
7958;DHT22;4024;52.172;5.378;2024-02-14T09:06:39;13.00;99.90
7958;DHT22;4024;52.172;5.378;2024-02-14T09:09:06;13.00;99.90
7958;DHT22;4024;52.172;5.378;2024-02-14T09:11:32;13.00;99.90
7958;DHT22;4024;52.172;5.378;2024-02-14T09:13:58;13.00;99.90
7958;DHT22;4024;52.172;5.378;2024-02-14T09:16:30;13.10;99.90
7958;DHT22;4024;52.172;5.378;2024-02-14T09:18:56;13.10;99.90
7958;DHT22;4024;52.172;5.378;2024-02-14T09:21:22;13.00;99.90
7958;DHT22;4024;52.172;5.378;2024-02-14T09:23:47;13.10;99.90
7958;DHT22;4024;52.172;5.378;2024-02-14T09:26:13;13.00;99.90
7958;DHT22;4024;52.172;5.378;2024-02-14T09:28:42;13.10;99.90
7958;DHT22;4024;52.172;5.378;2024-02-14T09:31:08;13.10;99.90
7958;DHT22;4024;52.172;5.378;2024-02-14T09:33:37;13.10;99.90
7958;DHT22;4024;52.172;5.378;2024-02-14T09:36:03;13.10;99.90
7958;DHT22;4024;52.172;5.378;2024-02-14T09:38:30;13.10;99.90
7958;DHT22;4024;52.172;5.378;2024-02-14T09:41:05;13.10;99.90
7958;DHT22;4024;52.172;5.378;2024-02-14T09:43:38;13.20;99.90
7958;DHT22;4024;52.172;5.378;2024-02-14T09:46:07;13.20;99.90
7958;DHT22;4024;52.172;5.378;2024-02-14T09:48:33;13.30;99.90
7958;DHT22;4024;52.172;5.378;2024-02-14T09:50:59;13.20;99.90
7958;DHT22;4024;52.172;5.378;2024-02-14T09:53:26;13.30;99.90
7958;DHT22;4024;52.172;5.378;2024-02-14T09:55:54;13.30;99.90
7958;DHT22;4024;52.172;5.378;2024-02-14T09:58:20;13.20;99.90
7958;DHT22;4024;52.172;5.378;2024-02-14T10:00:46;13.30;99.90
7958;DHT22;4024;52.172;5.378;2024-02-14T10:03:12;13.30;99.90
7958;DHT22;4024;52.172;5.378;2024-02-14T10:05:38;13.20;99.90
7958;DHT22;4024;52.172;5.378;2024-02-14T10:08:04;13.30;99.90
7958;DHT22;4024;52.172;5.378;2024-02-14T10:10:32;13.30;99.90
7958;DHT22;4024;52.172;5.378;2024-02-14T10:12:59;13.40;99.90
7958;DHT22;4024;52.172;5.378;2024-02-14T10:15:25;13.30;99.90
7958;DHT22;4024;52.172;5.378;2024-02-14T10:17:51;13.30;99.90
7958;DHT22;4024;52.172;5.378;2024-02-14T10:20:17;13.40;99.90
7958;DHT22;4024;52.172;5.378;2024-02-14T10:22:43;13.40;99.90
7958;DHT22;4024;52.172;5.378;2024-02-14T10:25:10;13.40;99.90
7958;DHT22;4024;52.172;5.378;2024-02-14T10:27:37;13.40;99.90
7958;DHT22;4024;52.172;5.378;2024-02-14T10:30:08;13.40;99.90
7958;DHT22;4024;52.172;5.378;2024-02-14T10:32:40;13.40;99.90
7958;DHT22;4024;52.172;5.378;2024-02-14T10:35:06;13.40;99.90
7958;DHT22;4024;52.172;5.378;2024-02-14T10:37:37;13.50;99.90
7958;DHT22;4024;52.172;5.378;2024-02-14T10:40:03;13.50;99.90
7958;DHT22;4024;52.172;5.378;2024-02-14T10:42:30;13.50;99.90
7958;DHT22;4024;52.172;5.378;2024-02-14T10:44:56;13.50;99.90
7958;DHT22;4024;52.172;5.378;2024-02-14T10:47:25;13.50;99.90
7958;DHT22;4024;52.172;5.378;2024-02-14T10:50:00;13.60;99.90
7958;DHT22;4024;52.172;5.378;2024-02-14T10:52:31;13.50;99.90
7958;DHT22;4024;52.172;5.378;2024-02-14T10:54:59;13.50;99.90
7958;DHT22;4024;52.172;5.378;2024-02-14T10:57:27;13.60;99.90
7958;DHT22;4024;52.172;5.378;2024-02-14T10:59:55;13.50;99.90
7958;DHT22;4024;52.172;5.378;2024-02-14T11:02:22;13.60;99.90
7958;DHT22;4024;52.172;5.378;2024-02-14T11:04:49;13.70;99.90
7958;DHT22;4024;52.172;5.378;2024-02-14T11:07:20;13.70;99.90
7958;DHT22;4024;52.172;5.378;2024-02-14T11:09:48;13.60;99.90
7958;DHT22;4024;52.172;5.378;2024-02-14T11:12:13;13.70;99.90
7958;DHT22;4024;52.172;5.378;2024-02-14T11:14:42;13.70;99.90
7958;DHT22;4024;52.172;5.378;2024-02-14T11:17:12;13.80;99.90
7958;DHT22;4024;52.172;5.378;2024-02-14T11:19:38;13.80;99.90
7958;DHT22;4024;52.172;5.378;2024-02-14T11:22:13;13.80;99.90
7958;DHT22;4024;52.172;5.378;2024-02-14T11:24:39;13.80;99.90
7958;DHT22;4024;52.172;5.378;2024-02-14T11:27:10;13.80;99.90
7958;DHT22;4024;52.172;5.378;2024-02-14T11:29:35;13.80;99.90
7958;DHT22;4024;52.172;5.378;2024-02-14T11:32:02;13.90;99.90
7958;DHT22;4024;52.172;5.378;2024-02-14T11:34:28;13.90;99.90
7958;DHT22;4024;52.172;5.378;2024-02-14T11:36:54;13.90;99.90
7958;DHT22;4024;52.172;5.378;2024-02-14T11:39:22;13.90;99.90
7958;DHT22;4024;52.172;5.378;2024-02-14T11:41:48;14.00;99.90
7958;DHT22;4024;52.172;5.378;2024-02-14T11:44:14;13.90;99.90
7958;DHT22;4024;52.172;5.378;2024-02-14T11:46:39;14.00;99.90
7958;DHT22;4024;52.172;5.378;2024-02-14T11:49:06;14.00;99.90
7958;DHT22;4024;52.172;5.378;2024-02-14T11:51:35;13.90;99.90
7958;DHT22;4024;52.172;5.378;2024-02-14T11:54:05;13.90;99.90
7958;DHT22;4024;52.172;5.378;2024-02-14T11:56:36;13.90;99.90
7958;DHT22;4024;52.172;5.378;2024-02-14T11:59:06;13.90;99.90
7958;DHT22;4024;52.172;5.378;2024-02-14T12:01:36;13.90;99.90
7958;DHT22;4024;52.172;5.378;2024-02-14T12:04:04;13.90;99.90
7958;DHT22;4024;52.172;5.378;2024-02-14T12:06:31;13.90;99.90
7958;DHT22;4024;52.172;5.378;2024-02-14T12:09:00;13.90;99.90
7958;DHT22;4024;52.172;5.378;2024-02-14T12:11:36;14.00;99.90
7958;DHT22;4024;52.172;5.378;2024-02-14T12:14:06;14.00;99.90
7958;DHT22;4024;52.172;5.378;2024-02-14T12:16:38;14.00;99.90
7958;DHT22;4024;52.172;5.378;2024-02-14T12:19:15;13.90;99.90
7958;DHT22;4024;52.172;5.378;2024-02-14T12:21:41;13.90;99.90
7958;DHT22;4024;52.172;5.378;2024-02-14T12:24:14;13.90;99.90
7958;DHT22;4024;52.172;5.378;2024-02-14T12:26:41;13.90;99.90
7958;DHT22;4024;52.172;5.378;2024-02-14T12:29:08;14.00;99.90
7958;DHT22;4024;52.172;5.378;2024-02-14T12:31:34;14.00;99.90
7958;DHT22;4024;52.172;5.378;2024-02-14T12:34:02;14.00;99.90
7958;DHT22;4024;52.172;5.378;2024-02-14T12:36:28;14.00;99.90
7958;DHT22;4024;52.172;5.378;2024-02-14T12:38:55;13.90;99.90
7958;DHT22;4024;52.172;5.378;2024-02-14T12:41:21;14.00;99.90
7958;DHT22;4024;52.172;5.378;2024-02-14T12:43:49;14.00;99.90
7958;DHT22;4024;52.172;5.378;2024-02-14T12:46:15;14.10;99.90
7958;DHT22;4024;52.172;5.378;2024-02-14T12:48:41;14.10;99.90
7958;DHT22;4024;52.172;5.378;2024-02-14T12:51:07;14.10;99.90
7958;DHT22;4024;52.172;5.378;2024-02-14T12:53:33;14.00;99.90
7958;DHT22;4024;52.172;5.378;2024-02-14T12:55:59;14.00;99.90
7958;DHT22;4024;52.172;5.378;2024-02-14T12:58:25;14.00;99.90
7958;DHT22;4024;52.172;5.378;2024-02-14T13:00:50;14.00;99.90
7958;DHT22;4024;52.172;5.378;2024-02-14T13:03:16;14.00;99.90
7958;DHT22;4024;52.172;5.378;2024-02-14T13:05:42;14.10;99.90
7958;DHT22;4024;52.172;5.378;2024-02-14T13:08:08;14.00;99.90
7958;DHT22;4024;52.172;5.378;2024-02-14T13:10:36;14.00;99.90
7958;DHT22;4024;52.172;5.378;2024-02-14T13:13:02;14.00;99.90
7958;DHT22;4024;52.172;5.378;2024-02-14T13:15:28;14.00;99.90
7958;DHT22;4024;52.172;5.378;2024-02-14T13:17:54;14.00;99.90
7958;DHT22;4024;52.172;5.378;2024-02-14T13:20:21;14.00;99.90
7958;DHT22;4024;52.172;5.378;2024-02-14T13:22:47;14.00;99.90
7958;DHT22;4024;52.172;5.378;2024-02-14T13:25:13;14.10;99.90
7958;DHT22;4024;52.172;5.378;2024-02-14T13:27:40;14.10;99.90
7958;DHT22;4024;52.172;5.378;2024-02-14T13:30:06;14.10;99.90
7958;DHT22;4024;52.172;5.378;2024-02-14T13:32:32;14.10;99.90
7958;DHT22;4024;52.172;5.378;2024-02-14T13:34:58;14.10;99.90
7958;DHT22;4024;52.172;5.378;2024-02-14T13:37:24;14.10;99.90
7958;DHT22;4024;52.172;5.378;2024-02-14T13:39:51;14.10;99.90
7958;DHT22;4024;52.172;5.378;2024-02-14T13:42:16;14.10;99.90
7958;DHT22;4024;52.172;5.378;2024-02-14T13:44:42;14.10;99.90
7958;DHT22;4024;52.172;5.378;2024-02-14T13:47:08;14.10;99.90
7958;DHT22;4024;52.172;5.378;2024-02-14T13:49:33;14.10;99.90
7958;DHT22;4024;52.172;5.378;2024-02-14T13:51:59;14.10;99.90
7958;DHT22;4024;52.172;5.378;2024-02-14T13:54:25;14.10;99.90
7958;DHT22;4024;52.172;5.378;2024-02-14T13:56:50;14.10;99.90
7958;DHT22;4024;52.172;5.378;2024-02-14T13:59:17;14.10;99.90
7958;DHT22;4024;52.172;5.378;2024-02-14T14:01:44;14.20;99.90
7958;DHT22;4024;52.172;5.378;2024-02-14T14:04:10;14.20;99.90
7958;DHT22;4024;52.172;5.378;2024-02-14T14:06:36;14.20;99.90
7958;DHT22;4024;52.172;5.378;2024-02-14T14:09:01;14.20;99.90
7958;DHT22;4024;52.172;5.378;2024-02-14T14:11:33;14.20;99.90
7958;DHT22;4024;52.172;5.378;2024-02-14T14:13:59;14.20;99.90
7958;DHT22;4024;52.172;5.378;2024-02-14T14:16:25;14.20;99.90
7958;DHT22;4024;52.172;5.378;2024-02-14T14:18:51;14.30;99.90
7958;DHT22;4024;52.172;5.378;2024-02-14T14:21:17;14.20;99.90
7958;DHT22;4024;52.172;5.378;2024-02-14T14:23:42;14.30;99.90
7958;DHT22;4024;52.172;5.378;2024-02-14T14:26:09;14.20;99.90
7958;DHT22;4024;52.172;5.378;2024-02-14T14:28:35;14.30;99.90
7958;DHT22;4024;52.172;5.378;2024-02-14T14:31:00;14.30;99.90
7958;DHT22;4024;52.172;5.378;2024-02-14T14:33:27;14.30;99.90
7958;DHT22;4024;52.172;5.378;2024-02-14T14:35:53;14.30;99.90
7958;DHT22;4024;52.172;5.378;2024-02-14T14:38:20;14.30;99.90
7958;DHT22;4024;52.172;5.378;2024-02-14T14:40:47;14.30;99.90
7958;DHT22;4024;52.172;5.378;2024-02-14T14:43:13;14.30;99.90
7958;DHT22;4024;52.172;5.378;2024-02-14T14:45:39;14.30;99.90
7958;DHT22;4024;52.172;5.378;2024-02-14T14:48:05;14.30;99.90
7958;DHT22;4024;52.172;5.378;2024-02-14T14:50:31;14.30;99.90
7958;DHT22;4024;52.172;5.378;2024-02-14T14:52:59;14.30;99.90
7958;DHT22;4024;52.172;5.378;2024-02-14T14:55:26;14.40;99.90
7958;DHT22;4024;52.172;5.378;2024-02-14T14:58:13;14.40;99.90
7958;DHT22;4024;52.172;5.378;2024-02-14T15:00:39;14.40;99.90
7958;DHT22;4024;52.172;5.378;2024-02-14T15:03:05;14.40;99.90
7958;DHT22;4024;52.172;5.378;2024-02-14T15:05:30;14.40;99.90
7958;DHT22;4024;52.172;5.378;2024-02-14T15:07:56;14.40;99.90
7958;DHT22;4024;52.172;5.378;2024-02-14T15:10:22;14.40;99.90
7958;DHT22;4024;52.172;5.378;2024-02-14T15:12:48;14.40;99.90
7958;DHT22;4024;52.172;5.378;2024-02-14T15:15:14;14.40;99.90
7958;DHT22;4024;52.172;5.378;2024-02-14T15:17:40;14.40;99.90
7958;DHT22;4024;52.172;5.378;2024-02-14T15:20:06;14.40;99.90
7958;DHT22;4024;52.172;5.378;2024-02-14T15:22:32;14.40;99.90
7958;DHT22;4024;52.172;5.378;2024-02-14T15:24:58;14.50;99.90
7958;DHT22;4024;52.172;5.378;2024-02-14T15:27:23;14.30;99.90
7958;DHT22;4024;52.172;5.378;2024-02-14T15:29:52;14.50;99.90
7958;DHT22;4024;52.172;5.378;2024-02-14T15:32:36;14.50;99.90
7958;DHT22;4024;52.172;5.378;2024-02-14T15:35:20;14.50;99.90
7958;DHT22;4024;52.172;5.378;2024-02-14T15:37:46;14.50;99.90
7958;DHT22;4024;52.172;5.378;2024-02-14T15:40:15;14.50;99.90
7958;DHT22;4024;52.172;5.378;2024-02-14T15:42:42;14.50;99.90
7958;DHT22;4024;52.172;5.378;2024-02-14T15:45:08;14.50;99.90
7958;DHT22;4024;52.172;5.378;2024-02-14T15:47:35;14.50;99.90
7958;DHT22;4024;52.172;5.378;2024-02-14T15:50:01;14.50;99.90
7958;DHT22;4024;52.172;5.378;2024-02-14T15:52:28;14.50;99.90
7958;DHT22;4024;52.172;5.378;2024-02-14T15:54:53;14.50;99.90
7958;DHT22;4024;52.172;5.378;2024-02-14T15:57:19;14.50;99.90